Terminal Aerodrome Forecast
Issued by NWS

Home | Current Version | Previous Version | Text Only | Print | Product List | Glossary On
Versions: 1 2 3 4 5 6 7 8 9 10 11 12 13 14 15 16 17 18 19 20
000
FTUS45 KTFX 211000 AAB
TAFGTF
TAF AMD
KGTF 211031Z 2111/2206 VRB05KT P6SM VCSH SCT008 OVC030
      TEMPO 2111/2115 BKN008
     FM211500 32005KT P6SM -SHRA SCT008 OVC025
     FM212300 03007KT P6SM SCT030 OVC060=

USA.gov is the U.S. government's official web portal to all federal, state and local government web resources and services.